Time;durP1;ratioP1;P1;durP2;ratioP2;P2;SDS_P1;SDS_P2;PMS_P1;PMS_P2;Temp;Humidity;BMP_temperature;BMP_pressure;BME280_temperature;BME280_humidity;BME280_pressure;Samples;Min_cycle;Max_cycle;Signal;HPM_P1;HPM_P2
2021/01/08 00:02:07;;;;;;;;;;;6.70;99.90;;;6.04;86.59;99811.59;5093535;28;19950;-63
2021/01/08 00:04:34;;;;;;;;;;;6.70;99.90;;;6.04;86.66;99809.72;5093229;28;19938;-63
2021/01/08 00:07:01;;;;;;;;;;;6.70;99.90;;;6.04;86.52;99811.59;5074838;28;19928;-62
2021/01/08 00:09:29;;;;;;;;;;;6.70;99.90;;;6.05;86.47;99811.28;5075078;28;19924;-63
2021/01/08 00:11:56;;;;;;;;;;;6.70;99.90;;;6.04;87.12;99808.91;5093330;28;20365;-63
2021/01/08 00:14:23;;;;;;;;;;;6.60;99.90;;;6.03;87.09;99799.25;5075286;28;20023;-62
2021/01/08 00:16:50;;;;;;;;;;;6.60;99.90;;;6.01;87.19;99798.72;5092444;28;19977;-63
2021/01/08 00:19:17;;;;;;;;;;;6.60;99.90;;;6.01;87.60;99804.09;5075317;28;19924;-63
2021/01/08 00:21:44;;;;;;;;;;;6.60;99.90;;;6.00;87.27;99802.50;5093095;28;19958;-63
2021/01/08 00:24:12;;;;;;;;;;;6.60;99.90;;;6.01;87.71;99796.84;5093101;28;19931;-62
2021/01/08 00:26:40;;;;;;;;;;;6.60;99.90;;;6.00;87.69;99797.94;5092070;28;19928;-63
2021/01/08 00:29:08;;;;;;;;;;;6.70;99.90;;;6.02;87.80;99805.69;5093085;28;19931;-62
2021/01/08 00:31:36;;;;;;;;;;;6.60;99.90;;;6.01;88.23;99798.72;5109959;28;19924;-63
2021/01/08 00:34:04;;;;;;;;;;;6.70;99.90;;;6.02;87.76;99797.63;5095353;28;19976;-63
2021/01/08 00:36:31;;;;;;;;;;;6.60;99.90;;;6.03;88.04;99792.00;5112286;28;19924;-63
2021/01/08 00:38:58;;;;;;;;;;;6.70;99.90;;;6.04;87.87;99809.72;5094845;28;19928;-63
2021/01/08 00:41:33;;;;;;;;;;;6.70;99.90;;;6.03;87.54;99805.41;5113313;28;19924;-63
2021/01/08 00:44:01;;;;;;;;;;;6.70;99.90;;;6.04;87.23;99793.59;5095537;28;19930;-63
2021/01/08 00:46:32;;;;;;;;;;;6.70;99.90;;;6.08;87.66;99793.03;5112022;28;19931;-63
2021/01/08 00:48:59;;;;;;;;;;;6.70;99.90;;;6.07;87.73;99791.44;5112970;28;19938;-63
2021/01/08 00:51:27;;;;;;;;;;;6.70;99.90;;;6.07;87.05;99794.09;5113265;28;20267;-63
2021/01/08 00:53:54;;;;;;;;;;;6.70;99.90;;;6.07;87.15;99796.78;5112953;28;19928;-63
2021/01/08 00:56:22;;;;;;;;;;;6.70;99.90;;;6.04;87.31;99795.47;5111668;28;20272;-63
2021/01/08 00:58:49;;;;;;;;;;;6.70;99.90;;;6.04;87.49;99787.44;5094985;28;19924;-63
2021/01/08 01:01:17;;;;;;;;;;;6.60;99.90;;;6.02;87.33;99784.22;5113079;28;19924;-63
2021/01/08 01:03:44;;;;;;;;;;;6.60;99.90;;;6.03;87.81;99783.94;5113065;28;20385;-63
2021/01/08 01:06:12;;;;;;;;;;;6.60;99.90;;;6.01;87.44;99777.25;5111635;28;19931;-63
2021/01/08 01:08:39;;;;;;;;;;;6.60;99.90;;;6.01;87.55;99772.69;5112551;28;19927;-63
2021/01/08 01:11:06;;;;;;;;;;;6.60;99.90;;;5.98;87.33;99775.16;5094731;28;20374;-63
2021/01/08 01:13:33;;;;;;;;;;;6.60;99.90;;;5.95;88.22;99765.00;5094664;28;19935;-63
2021/01/08 01:16:00;;;;;;;;;;;6.60;99.90;;;5.95;88.03;99756.94;5111709;28;19932;-63
2021/01/08 01:18:28;;;;;;;;;;;6.60;99.90;;;5.92;88.96;99758.31;5112482;28;19928;-63
2021/01/08 01:20:55;;;;;;;;;;;6.60;99.90;;;5.93;88.31;99751.03;5112583;28;20026;-63
2021/01/08 01:23:22;;;;;;;;;;;6.60;99.90;;;5.93;88.47;99743.00;5112345;28;19927;-63
2021/01/08 01:25:49;;;;;;;;;;;6.60;99.90;;;5.93;88.59;99740.31;5111476;28;19924;-64
2021/01/08 01:28:16;;;;;;;;;;;6.50;99.90;;;5.91;88.72;99727.19;5112365;28;19924;-63
2021/01/08 01:30:43;;;;;;;;;;;6.50;99.90;;;5.88;89.15;99721.59;5077693;28;20259;-64
2021/01/08 01:33:10;;;;;;;;;;;6.50;99.90;;;5.88;89.76;99719.72;5112310;28;19931;-63
2021/01/08 01:35:38;;;;;;;;;;;6.50;99.90;;;5.88;88.94;99713.53;5093458;28;19931;-64
2021/01/08 01:38:05;;;;;;;;;;;6.50;99.90;;;5.88;89.11;99716.22;5112560;28;19927;-64
2021/01/08 01:40:32;;;;;;;;;;;6.50;99.90;;;5.88;89.55;99708.19;5111980;28;20237;-64
2021/01/08 01:42:59;;;;;;;;;;;6.50;99.90;;;5.88;89.19;99700.94;5111199;28;19976;-63
2021/01/08 01:45:26;;;;;;;;;;;6.50;99.90;;;5.90;89.51;99700.63;5111498;28;20359;-64
2021/01/08 01:47:54;;;;;;;;;;;6.50;99.90;;;5.88;89.72;99692.06;5111763;28;19985;-63
2021/01/08 01:50:21;;;;;;;;;;;6.50;99.90;;;5.90;89.40;99695.25;5093931;28;20607;-64
2021/01/08 01:52:49;;;;;;;;;;;6.50;99.90;;;5.89;89.26;99688.31;5094092;28;19924;-63
2021/01/08 01:55:17;;;;;;;;;;;6.50;99.90;;;5.92;88.65;99687.75;5111809;28;19932;-64
2021/01/08 01:57:44;;;;;;;;;;;6.50;99.90;;;5.94;88.69;99685.56;5111188;28;19927;-63
2021/01/08 02:00:11;;;;;;;;;;;6.60;99.90;;;5.94;89.08;99682.88;5111954;28;19928;-64
2021/01/08 02:02:41;;;;;;;;;;;6.60;99.90;;;5.95;88.55;99682.59;5094161;28;19928;-64
2021/01/08 02:05:09;;;;;;;;;;;6.60;99.90;;;5.95;88.13;99687.19;5111963;28;19924;-63
2021/01/08 02:07:40;;;;;;;;;;;6.60;99.90;;;5.93;88.73;99689.31;5111090;28;20394;-63
2021/01/08 02:10:09;;;;;;;;;;;6.50;99.90;;;5.91;88.63;99686.94;5111767;28;20394;-63
2021/01/08 02:12:37;;;;;;;;;;;6.50;99.90;;;5.89;88.25;99689.13;5093756;28;19924;-63
2021/01/08 02:15:05;;;;;;;;;;;6.50;99.90;;;5.90;88.15;99689.91;5111794;28;19935;-63
2021/01/08 02:17:33;;;;;;;;;;;6.50;99.90;;;5.91;88.38;99680.78;5110622;28;19931;-63
2021/01/08 02:20:01;;;;;;;;;;;6.50;99.90;;;5.89;88.50;99677.59;5111580;28;19950;-63
2021/01/08 02:22:31;;;;;;;;;;;6.50;99.90;;;5.88;88.58;99671.41;5111746;28;20275;-63
2021/01/08 02:25:08;;;;;;;;;;;6.50;99.90;;;5.88;88.40;99673.28;5111682;28;19977;-63
2021/01/08 02:27:37;;;;;;;;;;;6.50;99.90;;;5.87;89.24;99667.13;5110877;28;19931;-63
2021/01/08 02:30:05;;;;;;;;;;;6.50;99.90;;;5.87;88.85;99664.44;5093371;28;20371;-64
2021/01/08 02:32:32;;;;;;;;;;;6.50;99.90;;;5.88;88.46;99654.50;5111725;28;19931;-63
2021/01/08 02:35:01;;;;;;;;;;;6.50;99.90;;;5.87;89.04;99659.06;5111416;28;19946;-63
2021/01/08 02:37:29;;;;;;;;;;;6.50;99.90;;;5.89;88.68;99661.50;5092887;28;19924;-63
2021/01/08 02:39:56;;;;;;;;;;;6.50;99.90;;;5.88;88.87;99660.69;5076673;28;20116;-63
2021/01/08 02:42:24;;;;;;;;;;;6.50;99.90;;;5.88;88.54;99660.69;5093476;28;19935;-63
2021/01/08 02:44:51;;;;;;;;;;;6.50;99.90;;;5.87;89.38;99671.69;5093209;28;19931;-63
2021/01/08 02:47:20;;;;;;;;;;;6.50;99.90;;;5.88;89.33;99676.78;5110536;28;19950;-63
2021/01/08 02:49:47;;;;;;;;;;;6.50;99.90;;;5.88;89.73;99681.34;5111265;28;19987;-63
2021/01/08 02:52:14;;;;;;;;;;;6.50;99.90;;;5.88;89.59;99675.97;5111395;28;19928;-64
2021/01/08 02:54:42;;;;;;;;;;;6.50;99.90;;;5.90;89.36;99681.84;5095868;28;20340;-63
2021/01/08 02:57:09;;;;;;;;;;;6.50;99.90;;;5.90;89.61;99684.53;5113858;28;19927;-63
2021/01/08 02:59:37;;;;;;;;;;;6.50;99.90;;;5.90;89.03;99684.53;5114687;28;19959;-63
2021/01/08 03:02:05;;;;;;;;;;;6.50;99.90;;;5.89;88.48;99677.59;5115197;28;19930;-63
2021/01/08 03:04:32;;;;;;;;;;;6.50;99.90;;;5.86;89.16;99680.84;5114894;28;19923;-63
2021/01/08 03:07:00;;;;;;;;;;;6.50;99.90;;;5.85;89.51;99679.19;5113634;28;19981;-63
2021/01/08 03:09:27;;;;;;;;;;;6.50;99.90;;;5.86;88.92;99672.78;5110185;28;19984;-63
2021/01/08 03:11:54;;;;;;;;;;;6.50;99.90;;;5.84;88.80;99677.59;5094490;28;19924;-63
2021/01/08 03:14:22;;;;;;;;;;;6.50;99.90;;;5.83;89.10;99687.56;5086689;28;20337;-63
2021/01/08 03:16:50;;;;;;;;;;;6.50;99.90;;;5.81;89.26;99678.97;5093166;28;19924;-63
2021/01/08 03:19:22;;;;;;;;;;;6.50;99.90;;;5.79;89.58;99673.09;5094025;28;19924;-63
2021/01/08 03:21:50;;;;;;;;;;;6.50;99.90;;;5.81;89.04;99665.56;5092651;28;19978;-63
2021/01/08 03:24:17;;;;;;;;;;;6.40;99.90;;;5.78;89.09;99662.66;5075621;28;20444;-63
2021/01/08 03:26:44;;;;;;;;;;;6.40;99.90;;;5.76;88.59;99667.50;5092956;28;19924;-63
2021/01/08 03:29:11;;;;;;;;;;;6.40;99.90;;;5.76;89.03;99652.22;5093803;28;20397;-63
2021/01/08 03:31:38;;;;;;;;;;;6.40;99.90;;;5.75;88.46;99658.66;5094006;28;19925;-64
2021/01/08 03:34:05;;;;;;;;;;;6.40;99.90;;;5.74;88.59;99657.06;5093935;28;19932;-63
2021/01/08 03:36:33;;;;;;;;;;;6.40;99.90;;;5.75;88.21;99660.53;5092807;28;19928;-63
2021/01/08 03:39:00;;;;;;;;;;;6.40;99.90;;;5.75;88.32;99660.53;5085147;28;19924;-63
2021/01/08 03:41:27;;;;;;;;;;;6.30;99.90;;;5.74;88.28;99656.28;5093757;28;19924;-63
2021/01/08 03:43:54;;;;;;;;;;;6.30;99.90;;;5.72;88.34;99655.75;5088705;28;19924;-63
2021/01/08 03:46:21;;;;;;;;;;;6.30;99.90;;;5.71;88.17;99640.75;5091391;28;19982;-64
2021/01/08 03:48:48;;;;;;;;;;;6.30;99.90;;;5.71;88.06;99638.06;5093565;28;19931;-63
2021/01/08 03:51:16;;;;;;;;;;;6.30;99.90;;;5.70;88.04;99641.81;5093763;28;19950;-63
2021/01/08 03:53:43;;;;;;;;;;;6.30;99.90;;;5.68;87.96;99641.31;5076709;28;19924;-63
2021/01/08 03:56:11;;;;;;;;;;;6.30;99.90;;;5.68;87.55;99644.00;5092623;28;19947;-63
2021/01/08 03:58:38;;;;;;;;;;;6.30;99.90;;;5.69;87.97;99629.50;5079633;28;19931;-63
2021/01/08 04:01:05;;;;;;;;;;;6.30;99.90;;;5.67;87.35;99627.09;5092171;28;19924;-64
2021/01/08 04:03:32;;;;;;;;;;;6.30;99.90;;;5.67;87.10;99619.06;5104580;28;20324;-63
2021/01/08 04:05:59;;;;;;;;;;;6.30;99.90;;;5.66;87.23;99622.00;5093865;28;19924;-63
2021/01/08 04:08:27;;;;;;;;;;;6.30;99.90;;;5.65;87.26;99615.06;5113712;28;20397;-63
2021/01/08 04:10:54;;;;;;;;;;;6.30;99.90;;;5.63;87.30;99614.53;5095671;28;19924;-63
2021/01/08 04:13:21;;;;;;;;;;;6.30;99.90;;;5.66;86.95;99608.59;5095668;28;19973;-63
2021/01/08 04:15:48;;;;;;;;;;;6.20;99.90;;;5.62;86.84;99607.59;5112628;28;19931;-63
2021/01/08 04:18:15;;;;;;;;;;;6.20;99.90;;;5.62;87.41;99613.78;5113550;28;19939;-63
2021/01/08 04:20:42;;;;;;;;;;;6.20;99.90;;;5.61;86.64;99616.72;5095524;28;19950;-63
2021/01/08 04:23:10;;;;;;;;;;;6.20;99.90;;;5.63;86.71;99617.22;5095624;28;20003;-63
2021/01/08 04:25:38;;;;;;;;;;;6.20;99.90;;;5.63;86.63;99611.84;5094775;28;20337;-63
2021/01/08 04:28:05;;;;;;;;;;;6.20;99.90;;;5.63;86.08;99609.97;5113101;28;19930;-63
2021/01/08 04:30:32;;;;;;;;;;;6.20;99.90;;;5.60;86.27;99607.88;5112981;28;20279;-63
2021/01/08 04:32:59;;;;;;;;;;;6.20;99.90;;;5.60;86.13;99604.38;5113483;28;19928;-63
2021/01/08 04:35:26;;;;;;;;;;;6.20;99.90;;;5.58;85.20;99596.66;5078006;28;19923;-63
2021/01/08 04:37:53;;;;;;;;;;;6.20;99.90;;;5.59;85.84;99603.63;5112880;28;19924;-63
2021/01/08 04:40:20;;;;;;;;;;;6.20;99.90;;;5.59;85.76;99610.84;5113160;28;19935;-63
2021/01/08 04:42:48;;;;;;;;;;;6.20;99.90;;;5.56;86.01;99592.66;5113291;28;19928;-63
2021/01/08 04:45:16;;;;;;;;;;;6.20;99.90;;;5.55;85.04;99591.84;5113042;28;19931;-63
2021/01/08 04:47:44;;;;;;;;;;;6.20;99.90;;;5.56;85.30;99582.75;5112580;28;19931;-63
2021/01/08 04:50:12;;;;;;;;;;;6.20;99.90;;;5.57;85.07;99588.88;5113007;28;19924;-63
2021/01/08 04:52:39;;;;;;;;;;;6.20;99.90;;;5.55;84.98;99588.38;5113241;28;19924;-63
2021/01/08 04:55:07;;;;;;;;;;;6.10;99.90;;;5.54;84.96;99584.88;5112718;28;19928;-63
2021/01/08 04:57:36;;;;;;;;;;;6.20;99.90;;;5.54;84.47;99574.16;5075469;28;20387;-63
2021/01/08 05:00:05;;;;;;;;;;;6.10;99.90;;;5.56;84.82;99569.31;5092294;28;19924;-64
2021/01/08 05:02:33;;;;;;;;;;;6.10;99.90;;;5.53;84.33;99559.94;5074935;28;20363;-63
2021/01/08 05:05:00;;;;;;;;;;;6.10;99.90;;;5.50;83.92;99551.72;5074209;28;20325;-63
2021/01/08 05:07:27;;;;;;;;;;;6.20;99.90;;;5.51;83.79;99555.97;5091582;28;19949;-63
2021/01/08 05:09:54;;;;;;;;;;;6.10;99.90;;;5.50;83.76;99552.47;5090176;28;20410;-63
2021/01/08 05:12:37;;;;;;;;;;;6.10;99.90;;;5.49;84.23;99544.75;5074469;28;19989;-63
2021/01/08 05:15:09;;;;;;;;;;;6.10;99.90;;;5.47;84.16;99531.59;5092212;28;19924;-64
2021/01/08 05:17:36;;;;;;;;;;;6.10;99.90;;;5.45;84.08;99520.38;5091441;28;19935;-64
2021/01/08 05:20:03;;;;;;;;;;;6.10;99.90;;;5.42;83.58;99512.91;5092026;28;20387;-64
2021/01/08 05:22:31;;;;;;;;;;;6.00;99.90;;;5.42;83.13;99504.06;5092051;28;20344;-63
2021/01/08 05:25:01;;;;;;;;;;;6.00;99.90;;;5.40;83.32;99507.06;5092216;28;19947;-64
2021/01/08 05:27:29;;;;;;;;;;;6.00;99.90;;;5.36;83.33;99514.06;5091467;28;19928;-63
2021/01/08 05:29:56;;;;;;;;;;;6.00;99.90;;;5.34;83.16;99516.25;5091965;28;20444;-63
2021/01/08 05:32:24;;;;;;;;;;;6.00;99.90;;;5.32;83.38;99513.03;5091946;28;19951;-63
2021/01/08 05:34:52;;;;;;;;;;;5.90;99.90;;;5.30;83.33;99507.16;5092070;28;19928;-64
2021/01/08 05:37:19;;;;;;;;;;;5.90;99.90;;;5.28;82.99;99506.66;5091379;28;19993;-64
2021/01/08 05:39:46;;;;;;;;;;;5.90;99.90;;;5.29;82.99;99507.47;5073855;28;20429;-63
2021/01/08 05:42:16;;;;;;;;;;;5.90;99.90;;;5.28;82.98;99509.34;5074543;28;20022;-63
2021/01/08 05:44:46;;;;;;;;;;;5.90;99.90;;;5.29;82.88;99494.06;5074004;28;19924;-64
2021/01/08 05:47:13;;;;;;;;;;;5.90;99.90;;;5.28;82.88;99493.25;5073148;28;19928;-64
2021/01/08 05:49:41;;;;;;;;;;;5.90;99.90;;;5.29;82.09;99481.44;5104738;28;19981;-64
2021/01/08 05:52:08;;;;;;;;;;;5.90;99.90;;;5.24;82.65;99486.06;5112406;28;20404;-64
2021/01/08 05:54:36;;;;;;;;;;;5.80;99.90;;;5.23;83.23;99481.81;5112157;28;19931;-63
2021/01/08 05:57:03;;;;;;;;;;;5.80;99.90;;;5.24;82.66;99480.72;5111011;28;19928;-63
2021/01/08 05:59:30;;;;;;;;;;;5.80;99.90;;;5.19;82.30;99470.88;5111721;28;19924;-63
2021/01/08 06:01:57;;;;;;;;;;;5.80;99.90;;;5.18;82.58;99479.97;5094184;28;20336;-63
2021/01/08 06:04:30;;;;;;;;;;;5.80;99.90;;;5.20;82.83;99466.31;5112082;28;19932;-63
2021/01/08 06:06:58;;;;;;;;;;;5.80;99.90;;;5.19;82.68;99483.47;5111093;28;19924;-63
2021/01/08 06:09:25;;;;;;;;;;;5.80;99.90;;;5.17;82.45;99489.09;5093693;28;19946;-63
2021/01/08 06:11:53;;;;;;;;;;;5.80;99.90;;;5.17;82.84;99478.38;5112156;28;19924;-63
2021/01/08 06:14:20;;;;;;;;;;;5.80;99.90;;;5.14;82.50;99476.25;5076894;28;20348;-63
2021/01/08 06:16:48;;;;;;;;;;;5.70;99.90;;;5.11;82.63;99471.47;5092594;28;20279;-63
2021/01/08 06:19:16;;;;;;;;;;;5.70;99.90;;;5.11;82.16;99473.34;5111858;28;20329;-63
2021/01/08 06:21:44;;;;;;;;;;;5.70;99.90;;;5.12;82.51;99489.16;5111861;28;19925;-63
2021/01/08 06:24:13;;;;;;;;;;;5.70;99.90;;;5.12;82.15;99483.00;5112094;28;20298;-63
2021/01/08 06:26:41;;;;;;;;;;;5.70;99.90;;;5.11;81.68;99489.44;5110664;28;19927;-63
2021/01/08 06:29:17;;;;;;;;;;;5.70;99.90;;;5.11;82.23;99484.06;5113500;28;19931;-63
2021/01/08 06:31:48;;;;;;;;;;;5.70;99.90;;;5.09;81.90;99499.66;5115229;28;19927;-63
2021/01/08 06:34:22;;;;;;;;;;;5.70;99.90;;;5.09;82.15;99492.41;5115419;28;19924;-63
2021/01/08 06:37:06;;;;;;;;;;;5.70;99.90;;;5.06;82.52;99492.97;5114088;28;19931;-63
2021/01/08 06:39:37;;;;;;;;;;;5.70;99.90;;;5.03;82.60;99487.38;5096820;28;19942;-63
2021/01/08 06:42:05;;;;;;;;;;;5.70;99.90;;;4.99;82.42;99492.50;5114669;28;19930;-63
2021/01/08 06:44:33;;;;;;;;;;;5.60;99.90;;;5.00;82.48;99487.97;5115057;28;19936;-63
2021/01/08 06:47:02;;;;;;;;;;;5.60;99.90;;;4.96;82.76;99490.41;5096036;28;20409;-63
2021/01/08 06:49:30;;;;;;;;;;;5.60;99.90;;;4.95;82.85;99488.84;5097084;28;19924;-62
2021/01/08 06:51:59;;;;;;;;;;;5.60;99.90;;;4.94;82.69;99496.06;5115106;28;19928;-63
2021/01/08 06:54:27;;;;;;;;;;;5.50;99.90;;;4.93;82.38;99499.00;5114772;28;19924;-63
2021/01/08 06:56:59;;;;;;;;;;;5.50;99.90;;;4.95;82.57;99492.28;5114033;28;20294;-63
2021/01/08 06:59:31;;;;;;;;;;;5.60;99.90;;;4.96;82.44;99498.44;5114855;28;19924;-63
2021/01/08 07:02:03;;;;;;;;;;;5.50;99.90;;;4.96;82.78;99511.84;5096827;28;19938;-63
2021/01/08 07:04:31;;;;;;;;;;;5.60;99.90;;;4.96;82.80;99519.88;5114851;28;19953;-63
2021/01/08 07:07:00;;;;;;;;;;;5.60;99.90;;;4.96;83.06;99506.47;5111721;28;19925;-63
2021/01/08 07:09:32;;;;;;;;;;;5.60;99.90;;;4.98;82.49;99505.09;5114740;28;19924;-63
2021/01/08 07:12:00;;;;;;;;;;;5.60;99.90;;;4.97;82.97;99495.50;5114811;28;19928;-63
2021/01/08 07:14:27;;;;;;;;;;;5.60;99.90;;;4.97;83.19;99498.19;5114762;28;20366;-63
2021/01/08 07:16:55;;;;;;;;;;;5.60;99.90;;;4.99;82.75;99511.28;5113507;28;19977;-63
2021/01/08 07:19:24;;;;;;;;;;;5.60;99.90;;;5.00;82.48;99509.41;5114406;28;19924;-63
2021/01/08 07:21:52;;;;;;;;;;;5.60;99.90;;;4.99;83.16;99519.31;5114606;28;20272;-63
2021/01/08 07:24:23;;;;;;;;;;;5.60;99.90;;;4.99;83.06;99513.94;5096669;28;19935;-63
2021/01/08 07:26:51;;;;;;;;;;;5.60;99.90;;;4.99;82.68;99516.63;5113521;28;19976;-64
2021/01/08 07:29:26;;;;;;;;;;;5.60;99.90;;;5.01;82.68;99521.72;5096056;28;19978;-64
2021/01/08 07:31:55;;;;;;;;;;;5.60;99.90;;;5.00;82.75;99530.81;5114345;28;19924;-63
2021/01/08 07:34:34;;;;;;;;;;;5.60;99.90;;;5.00;82.80;99525.47;5096146;28;20271;-63
2021/01/08 07:37:01;;;;;;;;;;;5.60;99.90;;;4.99;82.82;99532.69;5078714;28;19923;-62
2021/01/08 07:39:39;;;;;;;;;;;5.60;99.90;;;5.00;83.00;99530.81;5096059;28;19935;-63
2021/01/08 07:42:30;;;;;;;;;;;5.60;99.90;;;4.98;82.43;99547.97;5114269;28;20048;-62
2021/01/08 07:44:58;;;;;;;;;;;5.60;99.90;;;4.99;82.60;99551.44;5096015;28;19924;-63
2021/01/08 07:47:26;;;;;;;;;;;5.60;99.90;;;4.99;82.24;99548.78;5113411;28;19977;-63
2021/01/08 07:50:10;;;;;;;;;;;5.60;99.90;;;5.01;82.72;99548.50;5114069;28;19930;-63
2021/01/08 07:52:38;;;;;;;;;;;5.60;99.90;;;5.00;82.28;99545.03;5114136;28;19993;-63
2021/01/08 07:55:06;;;;;;;;;;;5.60;99.90;;;5.01;82.61;99543.16;5113946;28;19928;-63
2021/01/08 07:58:03;;;;;;;;;;;5.60;99.90;;;4.95;82.78;99543.19;5113146;28;19935;-63
2021/01/08 08:00:33;;;;;;;;;;;5.60;99.90;;;4.96;82.80;99536.75;5093260;28;19924;-63
2021/01/08 08:03:01;;;;;;;;;;;5.60;99.90;;;4.98;83.04;99531.91;5114139;28;19934;-63
2021/01/08 08:05:29;;;;;;;;;;;5.60;99.90;;;4.99;83.11;99530.03;5095527;28;19924;-63
2021/01/08 08:07:58;;;;;;;;;;;5.60;99.90;;;4.98;83.06;99529.22;5095708;28;19924;-63
2021/01/08 08:10:27;;;;;;;;;;;5.60;99.90;;;5.00;82.65;99520.09;5113745;28;19924;-63
2021/01/08 08:12:54;;;;;;;;;;;5.60;99.90;;;5.01;82.23;99521.72;5113710;28;19924;-63
2021/01/08 08:15:22;;;;;;;;;;;5.60;99.90;;;5.02;82.54;99529.44;5113515;28;19924;-63
2021/01/08 08:17:50;;;;;;;;;;;5.60;99.90;;;5.04;82.57;99515.78;5113158;28;19924;-63
2021/01/08 08:20:19;;;;;;;;;;;5.60;99.90;;;5.05;82.43;99522.72;5113539;28;19924;-63
2021/01/08 08:22:46;;;;;;;;;;;5.60;99.90;;;5.06;81.75;99518.97;5113656;28;19963;-63
2021/01/08 08:25:25;;;;;;;;;;;5.60;99.90;;;5.08;81.53;99517.59;5113392;28;19953;-63
2021/01/08 08:27:53;;;;;;;;;;;5.70;99.90;;;5.08;81.49;99528.31;5077975;28;19924;-63
2021/01/08 08:30:21;;;;;;;;;;;5.70;99.90;;;5.11;81.47;99527.75;5113426;28;20386;-63
2021/01/08 08:32:49;;;;;;;;;;;5.70;99.90;;;5.11;81.66;99533.09;5113411;28;19937;-63
2021/01/08 08:35:16;;;;;;;;;;;5.70;99.90;;;5.13;81.42;99538.19;5113188;28;19923;-63
2021/01/08 08:37:50;;;;;;;;;;;5.70;99.90;;;5.14;81.54;99537.09;5112566;28;19931;-63
2021/01/08 08:40:18;;;;;;;;;;;5.80;99.90;;;5.15;81.72;99550.22;5095772;28;19935;-64
2021/01/08 08:42:50;;;;;;;;;;;5.80;99.90;;;5.18;81.02;99540.81;5113007;28;19931;-63
2021/01/08 08:45:25;;;;;;;;;;;5.80;99.90;;;5.18;81.08;99554.22;5113089;28;20087;-64
2021/01/08 08:47:54;;;;;;;;;;;5.80;99.90;;;5.20;81.49;99550.16;5094358;28;19974;-64
2021/01/08 08:50:22;;;;;;;;;;;5.80;99.90;;;5.19;81.03;99542.41;5112836;28;19969;-64
2021/01/08 08:52:49;;;;;;;;;;;5.80;99.90;;;5.18;81.24;99549.66;5112732;28;19924;-64
2021/01/08 08:55:29;;;;;;;;;;;5.80;99.90;;;5.20;81.67;99541.34;5112844;28;20291;-63
2021/01/08 08:58:01;;;;;;;;;;;5.80;99.90;;;5.21;81.41;99550.97;5095461;28;19949;-64
2021/01/08 09:00:28;;;;;;;;;;;5.80;99.90;;;5.24;81.58;99556.56;5112753;28;19923;-63
2021/01/08 09:02:56;;;;;;;;;;;5.90;99.90;;;5.26;81.48;99567.78;5113052;28;20310;-63
2021/01/08 09:05:30;;;;;;;;;;;5.90;99.90;;;5.26;81.60;99573.13;5112402;28;20267;-63
2021/01/08 09:08:03;;;;;;;;;;;5.90;99.90;;;5.29;81.63;99567.19;5094524;28;19924;-62
2021/01/08 09:10:32;;;;;;;;;;;5.90;99.90;;;5.32;81.11;99555.13;5112684;28;20436;-63
2021/01/08 09:13:08;;;;;;;;;;;5.90;99.90;;;5.40;81.08;99557.19;5094985;28;19939;-64
2021/01/08 09:15:42;;;;;;;;;;;6.00;99.90;;;5.40;80.82;99562.53;5094046;28;20006;-63
2021/01/08 09:18:12;;;;;;;;;;;6.00;99.90;;;5.49;80.98;99571.56;5112535;28;19924;-63
2021/01/08 09:20:43;;;;;;;;;;;6.10;99.90;;;5.56;80.53;99576.56;5094343;28;19927;-63
2021/01/08 09:23:10;;;;;;;;;;;6.20;99.90;;;5.60;80.20;99580.25;5112268;28;19977;-62
2021/01/08 09:25:38;;;;;;;;;;;6.20;99.90;;;5.68;79.59;99583.13;5111894;28;19928;-63
2021/01/08 09:28:06;;;;;;;;;;;6.30;99.90;;;5.76;79.95;99589.72;5112469;28;19928;-63
2021/01/08 09:30:33;;;;;;;;;;;6.30;99.90;;;5.79;79.58;99587.25;5112263;28;20953;-63
2021/01/08 09:33:00;;;;;;;;;;;6.40;99.90;;;5.77;78.84;99583.28;5112316;28;20373;-63
2021/01/08 09:35:27;;;;;;;;;;;6.40;99.90;;;5.79;79.06;99565.81;5112037;28;19927;-62
2021/01/08 09:37:55;;;;;;;;;;;6.40;99.90;;;5.83;78.44;99566.03;5112215;28;19936;-63
2021/01/08 09:40:22;;;;;;;;;;;6.40;99.90;;;5.85;78.97;99561.16;5112432;28;20355;-63
2021/01/08 09:42:49;;;;;;;;;;;6.40;99.90;;;5.96;78.37;99557.28;5112478;28;19931;-63
2021/01/08 09:45:21;;;;;;;;;;;6.50;99.90;;;6.08;77.72;99557.63;5112024;28;19924;-63
2021/01/08 09:47:49;;;;;;;;;;;6.70;99.90;;;6.17;77.19;99555.91;5111767;28;20038;-63
2021/01/08 09:50:30;;;;;;;;;;;6.70;99.90;;;6.33;76.40;99554.59;5094019;28;20298;-63
2021/01/08 09:52:58;;;;;;;;;;;6.80;99.90;;;6.46;75.91;99545.00;5094287;28;19931;-64
2021/01/08 09:55:27;;;;;;;;;;;7.00;99.90;;;6.48;75.60;99521.31;5111616;28;19971;-63
2021/01/08 09:57:55;;;;;;;;;;;7.00;99.90;;;6.46;75.72;99500.16;5112088;28;19938;-64
2021/01/08 10:00:27;;;;;;;;;;;7.10;99.90;;;6.59;75.11;99510.13;5093802;28;19979;-63
2021/01/08 10:02:55;;;;;;;;;;;7.20;99.90;;;6.70;74.76;99496.50;5111184;28;19924;-63
2021/01/08 10:05:25;;;;;;;;;;;7.20;99.90;;;6.99;74.08;99499.75;5093466;28;19984;-63
2021/01/08 10:07:53;;;;;;;;;;;7.50;99.90;;;7.43;73.11;99491.84;5111663;28;19923;-63
2021/01/08 10:10:42;;;;;;;;;;;7.80;99.90;;;7.87;71.54;99487.69;5111754;28;20047;-63
2021/01/08 10:13:20;;;;;;;;;;;8.20;99.90;;;8.01;69.56;99478.44;5112119;28;19924;-63
2021/01/08 10:15:48;;;;;;;;;;;8.50;99.90;;;8.00;68.60;99457.22;5111000;28;19943;-63
2021/01/08 10:18:17;;;;;;;;;;;8.50;99.90;;;8.09;68.76;99444.59;5109032;28;19924;-63
2021/01/08 10:20:46;;;;;;;;;;;8.60;99.90;;;8.22;68.98;99465.28;5111719;28;19927;-62
2021/01/08 10:23:16;;;;;;;;;;;8.70;99.90;;;8.27;68.43;99456.31;5111988;28;19930;-63
2021/01/08 10:25:43;;;;;;;;;;;8.70;99.90;;;8.25;68.94;99456.59;5110970;28;19931;-63
2021/01/08 10:28:13;;;;;;;;;;;8.80;99.90;;;8.18;67.80;99464.31;5111631;28;19977;-63
2021/01/08 10:30:40;;;;;;;;;;;8.70;99.90;;;8.08;69.39;99478.03;5093790;28;19946;-62
2021/01/08 10:33:08;;;;;;;;;;;8.60;99.90;;;8.00;69.54;99481.44;5111720;28;19933;-63
2021/01/08 10:35:35;;;;;;;;;;;8.60;99.90;;;8.02;68.92;99479.25;5110990;28;19931;-63
2021/01/08 10:38:02;;;;;;;;;;;8.60;99.90;;;7.92;68.89;99477.59;5111543;28;20319;-63
2021/01/08 10:40:30;;;;;;;;;;;8.50;99.90;;;7.91;69.46;99469.81;5111561;28;20263;-63
2021/01/08 10:42:57;;;;;;;;;;;8.50;99.90;;;7.86;69.16;99468.03;5111605;28;20352;-63
2021/01/08 10:45:25;;;;;;;;;;;8.40;99.90;;;7.81;69.59;99464.69;5111037;28;19992;-63
2021/01/08 10:47:52;;;;;;;;;;;8.40;99.90;;;7.97;70.16;99466.69;5111080;28;19930;-63
2021/01/08 10:50:19;;;;;;;;;;;8.50;99.90;;;7.99;69.71;99471.78;5111410;28;20444;-63
2021/01/08 10:52:46;;;;;;;;;;;8.50;99.90;;;8.04;70.38;99469.78;5111447;28;19935;-63
2021/01/08 10:55:13;;;;;;;;;;;8.60;99.90;;;8.47;71.36;99455.81;5111077;28;19924;-63
2021/01/08 10:57:41;;;;;;;;;;;8.90;99.90;;;8.75;69.13;99441.06;5092508;28;19923;-63
2021/01/08 11:00:09;;;;;;;;;;;9.10;99.90;;;8.87;67.71;99435.09;5111277;28;19957;-62
2021/01/08 11:02:37;;;;;;;;;;;9.30;99.90;;;8.83;68.38;99420.63;5093631;28;20286;-62
2021/01/08 11:05:05;;;;;;;;;;;9.30;99.90;;;8.89;67.52;99420.19;5092764;28;19923;-63
2021/01/08 11:07:33;;;;;;;;;;;9.40;99.90;;;9.00;67.22;99415.28;5110429;28;20022;-63
2021/01/08 11:10:00;;;;;;;;;;;9.50;99.90;;;8.96;68.38;99417.03;5110526;28;19950;-63
2021/01/08 11:12:27;;;;;;;;;;;9.40;99.90;;;8.88;67.02;99425.88;5111281;28;19924;-63
2021/01/08 11:14:56;;;;;;;;;;;9.40;99.90;;;8.71;67.38;99430.09;5112623;28;19928;-63
2021/01/08 11:17:23;;;;;;;;;;;9.30;99.90;;;8.57;67.48;99420.53;5079210;28;19923;-63
2021/01/08 11:19:50;;;;;;;;;;;9.10;99.90;;;8.42;68.73;99399.41;5096292;28;19927;-63
2021/01/08 11:22:17;;;;;;;;;;;9.00;99.90;;;8.55;69.07;99388.50;5114642;28;19924;-63
2021/01/08 11:24:44;;;;;;;;;;;9.10;99.90;;;8.65;68.54;99390.94;5114330;28;20366;-63
2021/01/08 11:27:11;;;;;;;;;;;9.10;99.90;;;8.73;68.39;99397.44;5095648;28;19977;-63
2021/01/08 11:29:38;;;;;;;;;;;9.20;99.90;;;8.67;67.96;99396.78;5114331;28;19949;-63
2021/01/08 11:32:08;;;;;;;;;;;9.20;99.90;;;8.62;67.89;99398.84;5114742;28;19931;-63
2021/01/08 11:34:35;;;;;;;;;;;9.10;99.90;;;8.67;68.46;99410.28;5096338;28;20011;-63
2021/01/08 11:37:02;;;;;;;;;;;9.20;99.90;;;8.69;67.91;99393.81;5111403;28;19969;-63
2021/01/08 11:39:29;;;;;;;;;;;9.20;99.90;;;8.83;67.58;99383.69;5113960;28;19924;-63
2021/01/08 11:41:56;;;;;;;;;;;9.30;99.90;;;8.94;66.55;99382.28;5114536;28;19923;-63